Time;durP1;ratioP1;P1;durP2;ratioP2;P2;SDS_P1;SDS_P2;PMS_P1;PMS_P2;Temp;Humidity;BMP_temperature;BMP_pressure;BME280_temperature;BME280_humidity;BME280_pressure;Samples;Min_cycle;Max_cycle;Signal;HPM_P1;HPM_P2
2022/07/02 00:00:53;;;;;;;8.10;6.05;;;19.30;94.90;;;;;;5050743;28;20048;-66
2022/07/02 00:03:24;;;;;;;7.65;6.32;;;19.40;94.90;;;;;;5051943;28;20024;-66
2022/07/02 00:05:57;;;;;;;6.85;6.13;;;19.30;95.00;;;;;;5053896;28;20059;-66
2022/07/02 00:08:24;;;;;;;7.75;5.95;;;19.30;95.00;;;;;;5054872;28;20474;-66
2022/07/02 00:10:51;;;;;;;6.97;6.03;;;19.30;95.00;;;;;;5062181;28;20475;-66
2022/07/02 00:13:18;;;;;;;9.13;5.55;;;19.30;95.10;;;;;;5056715;28;20467;-66
2022/07/02 00:15:44;;;;;;;5.95;5.05;;;19.30;95.10;;;;;;5054912;28;20018;-65
2022/07/02 00:18:11;;;;;;;5.93;5.10;;;19.30;95.20;;;;;;5045866;28;20641;-66
2022/07/02 00:20:37;;;;;;;8.10;5.55;;;19.20;95.20;;;;;;5054964;28;20045;-66
2022/07/02 00:23:03;;;;;;;8.18;5.82;;;19.30;95.30;;;;;;5053536;28;20476;-66
2022/07/02 00:25:37;;;;;;;8.57;5.82;;;19.20;95.30;;;;;;5051224;28;20049;-66
2022/07/02 00:28:05;;;;;;;7.30;6.07;;;19.30;95.40;;;;;;5046454;28;20033;-66
2022/07/02 00:30:32;;;;;;;8.30;6.78;;;19.20;95.30;;;;;;5049502;28;20030;-66
2022/07/02 00:32:59;;;;;;;6.65;5.95;;;19.20;95.40;;;;;;5041552;28;20072;-66
2022/07/02 00:35:25;;;;;;;8.23;5.95;;;19.20;95.50;;;;;;5046677;28;20025;-66
2022/07/02 00:37:52;;;;;;;7.30;5.57;;;19.10;95.50;;;;;;5040864;28;20040;-65
2022/07/02 00:40:18;;;;;;;7.25;5.35;;;19.10;95.60;;;;;;5034025;28;20026;-66
2022/07/02 00:42:44;;;;;;;8.05;6.40;;;19.00;95.60;;;;;;5038836;28;20380;-65
2022/07/02 00:45:10;;;;;;;7.68;5.72;;;19.00;95.70;;;;;;5044616;28;20057;-67
2022/07/02 00:47:37;;;;;;;6.78;6.07;;;19.00;95.80;;;;;;5051030;28;20075;-67
2022/07/02 00:50:05;;;;;;;7.18;5.82;;;19.00;95.80;;;;;;5053699;28;20091;-67
2022/07/02 00:52:31;;;;;;;7.13;6.43;;;18.90;95.90;;;;;;5050956;28;20029;-67
2022/07/02 00:54:56;;;;;;;6.93;5.63;;;18.90;95.90;;;;;;5033443;28;20115;-67
2022/07/02 00:57:22;;;;;;;6.63;5.45;;;18.90;95.90;;;;;;5037379;28;20025;-67
2022/07/02 00:59:48;;;;;;;8.25;5.85;;;18.80;96.30;;;;;;5053317;28;20021;-67
2022/07/02 01:02:15;;;;;;;6.53;5.22;;;18.90;96.10;;;;;;5041305;28;20032;-67
2022/07/02 01:04:41;;;;;;;5.90;5.30;;;18.80;96.10;;;;;;5053029;28;20029;-67
2022/07/02 01:07:09;;;;;;;8.38;5.70;;;18.80;96.20;;;;;;5049068;28;20469;-67
2022/07/02 01:12:28;;;;;;;7.03;5.45;;;18.80;96.20;;;;;;5038932;28;20045;-67
2022/07/02 01:14:55;;;;;;;6.63;5.57;;;18.80;96.20;;;;;;5040373;28;20033;-67
2022/07/02 01:17:21;;;;;;;6.95;5.85;;;18.80;96.10;;;;;;5041244;28;20056;-67
2022/07/02 01:19:47;;;;;;;12.43;6.10;;;18.90;96.20;;;;;;5051517;28;20040;-67
2022/07/02 01:22:17;;;;;;;6.20;5.53;;;18.80;96.10;;;;;;5051413;28;20025;-67
2022/07/02 01:24:44;;;;;;;8.27;6.43;;;18.70;96.30;;;;;;5052949;28;20032;-67
2022/07/02 01:27:10;;;;;;;7.25;6.40;;;18.70;96.20;;;;;;5049074;28;20033;-68
2022/07/02 01:29:36;;;;;;;7.10;5.97;;;18.70;96.20;;;;;;5052497;28;20476;-68
2022/07/02 01:32:02;;;;;;;6.95;6.13;;;18.70;96.30;;;;;;5048890;28;20041;-67
2022/07/02 01:34:28;;;;;;;8.63;6.85;;;18.60;96.30;;;;;;5052640;28;20036;-67
2022/07/02 01:36:54;;;;;;;8.60;6.60;;;18.60;96.40;;;;;;5049544;28;20096;-67
2022/07/02 01:39:24;;;;;;;8.55;6.20;;;18.60;96.40;;;;;;5052338;28;20468;-67
2022/07/02 01:41:49;;;;;;;6.88;6.13;;;18.60;96.50;;;;;;5050696;28;20028;-66
2022/07/02 01:44:15;;;;;;;7.80;6.55;;;18.50;96.50;;;;;;5052109;28;20025;-66
2022/07/02 01:46:43;;;;;;;7.05;6.35;;;18.60;96.50;;;;;;5050302;28;20029;-66
2022/07/02 01:49:08;;;;;;;8.13;7.03;;;18.50;96.50;;;;;;5049924;28;20064;-66
2022/07/02 01:51:34;;;;;;;8.57;6.80;;;18.50;96.40;;;;;;5034937;28;20083;-66
2022/07/02 01:53:59;;;;;;;8.02;7.10;;;18.50;96.50;;;;;;5054761;28;20539;-66
2022/07/02 01:56:25;;;;;;;6.75;5.97;;;18.50;96.50;;;;;;5041076;28;20105;-67
2022/07/02 01:58:50;;;;;;;7.65;6.63;;;18.50;96.60;;;;;;5046382;28;20033;-66
2022/07/02 02:01:16;;;;;;;7.85;6.65;;;18.50;96.60;;;;;;5036616;28;20051;-66
2022/07/02 02:03:41;;;;;;;8.63;6.47;;;18.50;96.60;;;;;;5041157;28;20035;-66
2022/07/02 02:06:07;;;;;;;7.75;6.65;;;18.50;96.60;;;;;;5032352;28;20104;-66
2022/07/02 02:08:32;;;;;;;8.15;7.10;;;18.50;96.50;;;;;;5040886;28;20049;-66
2022/07/02 02:10:58;;;;;;;10.88;6.32;;;18.50;96.50;;;;;;5052489;28;20171;-66
2022/07/02 02:13:23;;;;;;;10.63;7.38;;;18.40;96.60;;;;;;5050537;28;20036;-66
2022/07/02 02:15:50;;;;;;;8.00;7.18;;;18.40;96.60;;;;;;5050745;28;20045;-66
2022/07/02 02:18:16;;;;;;;7.55;6.45;;;18.40;96.70;;;;;;5045078;28;20116;-66
2022/07/02 02:20:41;;;;;;;10.80;7.18;;;18.40;96.70;;;;;;5034277;28;20075;-66
2022/07/02 02:23:07;;;;;;;8.65;6.50;;;18.40;96.60;;;;;;5046708;28;20040;-66
2022/07/02 02:25:33;;;;;;;8.13;7.32;;;18.40;96.70;;;;;;5032252;28;20323;-66
2022/07/02 02:27:59;;;;;;;8.45;7.40;;;18.40;96.70;;;;;;5036503;28;20040;-66
2022/07/02 02:30:25;;;;;;;9.00;7.47;;;18.40;96.70;;;;;;5051592;28;20475;-66
2022/07/02 02:32:51;;;;;;;8.68;7.80;;;18.40;96.70;;;;;;5035619;28;20090;-67
2022/07/02 02:35:16;;;;;;;7.72;6.93;;;18.40;96.70;;;;;;5051978;28;20052;-67
2022/07/02 02:37:42;;;;;;;8.52;7.63;;;18.40;96.70;;;;;;5048112;28;20111;-66
2022/07/02 02:40:08;;;;;;;8.18;6.45;;;18.40;96.60;;;;;;5051747;28;20021;-67
2022/07/02 02:42:33;;;;;;;10.60;7.68;;;18.40;96.60;;;;;;5035708;28;20033;-67
2022/07/02 02:44:59;;;;;;;8.55;7.40;;;18.40;96.60;;;;;;5047711;28;20496;-66
2022/07/02 02:47:24;;;;;;;12.85;7.57;;;18.30;96.60;;;;;;5050456;28;20512;-67
2022/07/02 02:49:50;;;;;;;10.20;7.95;;;18.30;96.60;;;;;;5039721;28;20079;-67
2022/07/02 02:52:16;;;;;;;8.50;7.60;;;18.30;96.60;;;;;;5044500;28;20025;-67
2022/07/02 02:54:42;;;;;;;8.48;7.45;;;18.30;96.50;;;;;;5050378;28;20040;-67
2022/07/02 02:57:08;;;;;;;9.02;7.88;;;18.30;96.50;;;;;;5051566;28;20111;-67
2022/07/02 02:59:33;;;;;;;9.85;8.38;;;18.30;96.50;;;;;;5049999;28;20116;-67
2022/07/02 03:01:59;;;;;;;8.82;7.88;;;18.30;96.50;;;;;;5051207;28;20369;-67
2022/07/02 03:04:24;;;;;;;9.95;7.63;;;18.20;96.50;;;;;;5050120;28;20061;-67
2022/07/02 03:06:50;;;;;;;9.27;8.23;;;18.20;96.60;;;;;;5051119;28;20113;-67
2022/07/02 03:09:15;;;;;;;9.45;8.45;;;18.20;96.60;;;;;;5050004;28;20041;-67
2022/07/02 03:11:41;;;;;;;9.27;7.90;;;18.20;96.60;;;;;;5049666;28;20052;-67
2022/07/02 03:14:07;;;;;;;8.68;7.78;;;18.20;96.60;;;;;;5048339;28;20025;-66
2022/07/02 03:16:32;;;;;;;11.55;8.10;;;18.20;96.70;;;;;;5051059;28;20071;-66
2022/07/02 03:18:58;;;;;;;9.23;7.97;;;18.10;96.60;;;;;;5060340;28;20473;-66
2022/07/02 03:21:23;;;;;;;9.02;8.07;;;18.10;96.70;;;;;;5041264;28;20025;-67
2022/07/02 03:23:49;;;;;;;9.25;8.05;;;18.10;96.60;;;;;;5050541;28;20017;-66
2022/07/02 03:26:14;;;;;;;9.45;7.90;;;18.10;96.60;;;;;;5041745;28;20428;-66
2022/07/02 03:28:40;;;;;;;10.85;8.80;;;18.10;96.70;;;;;;5050357;28;20021;-66
2022/07/02 03:31:06;;;;;;;9.05;7.47;;;18.10;96.70;;;;;;5038911;28;20033;-66
2022/07/02 03:33:31;;;;;;;10.02;7.63;;;18.10;96.80;;;;;;5038569;28;20033;-67
2022/07/02 03:35:57;;;;;;;11.05;8.30;;;18.10;96.80;;;;;;5031368;28;20029;-66
2022/07/02 03:38:22;;;;;;;10.32;8.63;;;18.10;96.70;;;;;;5040896;28;20104;-66
2022/07/02 03:40:48;;;;;;;10.05;7.93;;;18.20;96.70;;;;;;5040035;28;20025;-67
2022/07/02 03:43:13;;;;;;;9.63;8.25;;;18.20;96.80;;;;;;5053859;28;20454;-66
2022/07/02 03:45:39;;;;;;;9.65;8.63;;;18.20;96.70;;;;;;5035900;28;20041;-66
2022/07/02 03:48:05;;;;;;;8.13;7.32;;;18.20;96.90;;;;;;5038880;28;20017;-66
2022/07/02 03:50:30;;;;;;;10.50;8.27;;;18.20;96.80;;;;;;5047102;28;20029;-66
2022/07/02 03:52:56;;;;;;;12.75;8.63;;;18.20;96.80;;;;;;5053870;28;20029;-67
2022/07/02 03:55:21;;;;;;;12.68;8.30;;;18.20;96.70;;;;;;5047399;28;20060;-67
2022/07/02 03:57:47;;;;;;;10.07;8.73;;;18.30;96.70;;;;;;5052790;28;20484;-67
2022/07/02 04:00:13;;;;;;;9.32;8.15;;;18.20;96.70;;;;;;5057439;28;20029;-67
2022/07/02 04:02:39;;;;;;;12.30;8.57;;;18.20;96.70;;;;;;5041833;28;20029;-67
2022/07/02 04:05:05;;;;;;;12.90;8.48;;;18.30;96.70;;;;;;5052994;28;20035;-67
2022/07/02 04:07:31;;;;;;;10.02;8.10;;;18.30;96.70;;;;;;5053255;28;20103;-68
2022/07/02 04:09:56;;;;;;;9.98;8.35;;;18.30;96.70;;;;;;5045339;28;20030;-67
2022/07/02 04:12:22;;;;;;;10.35;8.55;;;18.30;96.70;;;;;;5034725;28;20041;-68
2022/07/02 04:14:47;;;;;;;12.02;8.65;;;18.30;96.70;;;;;;5047237;28;20064;-67
2022/07/02 04:17:13;;;;;;;9.82;8.80;;;18.30;96.80;;;;;;5034105;28;20021;-67
2022/07/02 04:19:38;;;;;;;8.85;7.95;;;18.30;96.70;;;;;;5046494;28;20029;-68
2022/07/02 04:22:04;;;;;;;9.55;8.55;;;18.40;96.60;;;;;;5054203;28;20586;-68
2022/07/02 04:24:31;;;;;;;12.27;9.18;;;18.40;96.70;;;;;;5044210;28;20488;-68
2022/07/02 04:26:56;;;;;;;11.43;8.40;;;18.50;96.60;;;;;;5033880;28;20025;-68
2022/07/02 04:29:22;;;;;;;10.30;7.28;;;18.50;96.60;;;;;;5049201;28;20036;-68
2022/07/02 04:31:48;;;;;;;10.18;8.00;;;18.50;96.60;;;;;;5053624;28;20388;-68
2022/07/02 04:34:13;;;;;;;11.38;8.32;;;18.60;96.50;;;;;;5051155;28;20040;-69
2022/07/02 04:36:39;;;;;;;9.32;8.23;;;18.60;96.40;;;;;;5054125;28;20029;-68
2022/07/02 04:39:05;;;;;;;9.73;7.88;;;18.70;96.40;;;;;;5048677;28;20512;-68
2022/07/02 04:41:32;;;;;;;9.75;8.60;;;18.70;96.40;;;;;;5052719;28;20044;-68
2022/07/02 04:43:58;;;;;;;9.15;7.70;;;18.70;96.30;;;;;;5050763;28;20112;-68
2022/07/02 04:46:24;;;;;;;9.98;8.27;;;18.70;96.30;;;;;;5053159;28;20127;-68
2022/07/02 04:48:49;;;;;;;10.73;8.05;;;18.80;96.20;;;;;;5051520;28;20470;-68
2022/07/02 04:51:15;;;;;;;11.00;8.15;;;18.80;96.20;;;;;;5052842;28;20385;-68
2022/07/02 04:53:40;;;;;;;9.18;7.93;;;18.80;96.20;;;;;;5050924;28;20155;-68
2022/07/02 04:56:06;;;;;;;11.13;8.48;;;18.80;96.10;;;;;;5052131;28;20029;-68
2022/07/02 04:58:32;;;;;;;10.00;8.40;;;18.90;96.10;;;;;;5050023;28;20119;-68
2022/07/02 05:00:58;;;;;;;9.93;8.23;;;18.90;96.00;;;;;;5046690;28;20025;-69
2022/07/02 05:03:23;;;;;;;10.98;8.30;;;18.90;96.00;;;;;;5039867;28;20025;-73
2022/07/02 05:05:49;;;;;;;11.68;8.63;;;18.90;95.90;;;;;;5047728;28;20010;-72
2022/07/02 05:08:15;;;;;;;9.20;8.07;;;18.90;95.90;;;;;;5048874;28;20041;-71
2022/07/02 05:10:40;;;;;;;9.27;7.53;;;19.00;95.80;;;;;;5048894;28;20477;-69
2022/07/02 05:13:06;;;;;;;9.90;7.28;;;19.00;95.80;;;;;;5038884;28;20040;-71
2022/07/02 05:15:32;;;;;;;8.88;7.82;;;19.10;95.80;;;;;;5034641;28;20048;-69
2022/07/02 05:17:58;;;;;;;9.60;7.53;;;19.00;95.80;;;;;;5046546;28;20070;-68
2022/07/02 05:20:23;;;;;;;8.40;7.50;;;19.10;95.80;;;;;;5038227;28;20415;-67
2022/07/02 05:22:49;;;;;;;9.90;8.05;;;19.10;95.80;;;;;;5052265;28;20021;-68
2022/07/02 05:25:14;;;;;;;10.20;7.50;;;19.20;95.70;;;;;;5038473;28;20039;-67
2022/07/02 05:27:40;;;;;;;9.38;6.97;;;19.20;95.70;;;;;;5035352;28;20536;-68
2022/07/02 05:30:06;;;;;;;8.95;7.10;;;19.20;95.60;;;;;;5035440;28;20026;-67
2022/07/02 05:32:32;;;;;;;9.88;7.93;;;19.20;95.60;;;;;;5035319;28;20083;-68
2022/07/02 05:34:57;;;;;;;8.02;7.22;;;19.20;95.60;;;;;;5052076;28;20442;-68
2022/07/02 05:37:23;;;;;;;9.20;7.88;;;19.30;95.60;;;;;;5051576;28;20037;-68
2022/07/02 05:39:48;;;;;;;7.78;6.97;;;19.30;95.50;;;;;;5038177;28;20021;-68
2022/07/02 05:42:14;;;;;;;8.13;7.25;;;19.40;95.50;;;;;;5032513;28;20468;-68
2022/07/02 05:44:39;;;;;;;8.23;6.95;;;19.40;95.50;;;;;;5038236;28;20484;-69
2022/07/02 05:47:05;;;;;;;8.02;6.93;;;19.40;95.40;;;;;;5034010;28;20053;-68
2022/07/02 05:49:31;;;;;;;9.85;6.88;;;19.50;95.40;;;;;;5045585;28;20440;-68
2022/07/02 05:51:56;;;;;;;8.40;6.85;;;19.50;95.40;;;;;;5051429;28;20378;-67
2022/07/02 05:54:22;;;;;;;8.45;6.53;;;19.50;95.30;;;;;;5049824;28;20065;-66
2022/07/02 05:56:47;;;;;;;9.15;7.68;;;19.60;95.20;;;;;;5052017;28;20115;-66
2022/07/02 05:59:13;;;;;;;9.50;7.55;;;19.50;95.10;;;;;;5049112;28;20029;-66
2022/07/02 06:01:38;;;;;;;7.75;6.78;;;19.70;95.10;;;;;;5057376;28;20453;-66
2022/07/02 06:04:04;;;;;;;8.20;6.22;;;19.70;95.00;;;;;;5046662;28;20033;-65
2022/07/02 06:09:14;;;;;;;10.23;6.90;;;19.70;94.80;;;;;;5041506;28;20475;-65
2022/07/02 06:11:39;;;;;;;8.32;7.07;;;19.80;94.70;;;;;;5050603;28;20040;-66
2022/07/02 06:14:05;;;;;;;7.60;5.90;;;19.80;94.60;;;;;;5045011;28;20045;-66
2022/07/02 06:16:31;;;;;;;6.65;5.57;;;19.90;94.60;;;;;;5045514;28;20037;-66
2022/07/02 06:18:56;;;;;;;7.53;6.70;;;19.90;94.50;;;;;;5045976;28;20029;-66
2022/07/02 06:21:22;;;;;;;6.57;5.70;;;20.00;94.40;;;;;;5058235;28;20071;-66
2022/07/02 06:23:47;;;;;;;7.80;6.43;;;20.10;94.30;;;;;;5044290;28;20025;-66
2022/07/02 06:26:13;;;;;;;8.55;6.07;;;20.10;94.20;;;;;;5049559;28;20021;-67
2022/07/02 06:28:39;;;;;;;7.18;5.93;;;20.10;94.20;;;;;;5043874;28;20419;-65
2022/07/02 06:31:04;;;;;;;7.53;5.38;;;20.10;94.20;;;;;;5050710;28;20025;-66
2022/07/02 06:33:30;;;;;;;7.47;6.18;;;20.20;94.10;;;;;;5044728;28;20045;-66
2022/07/02 06:35:55;;;;;;;7.43;6.00;;;20.30;94.10;;;;;;5050609;28;20024;-65
2022/07/02 06:38:21;;;;;;;7.07;5.85;;;20.30;94.00;;;;;;5043582;28;20033;-64
2022/07/02 06:40:46;;;;;;;7.45;5.72;;;20.40;93.90;;;;;;5050282;28;20031;-65
2022/07/02 06:43:12;;;;;;;6.03;5.43;;;20.40;93.70;;;;;;5045542;28;20028;-63
2022/07/02 06:45:38;;;;;;;6.00;5.35;;;20.50;93.50;;;;;;5050580;28;20366;-65
2022/07/02 06:48:04;;;;;;;9.13;6.45;;;20.50;93.30;;;;;;5047245;28;20073;-65
2022/07/02 06:50:29;;;;;;;6.68;4.97;;;20.60;93.20;;;;;;5050365;28;20024;-66
2022/07/02 06:52:55;;;;;;;8.02;6.25;;;20.60;93.10;;;;;;5046013;28;20190;-65
2022/07/02 06:55:20;;;;;;;7.13;5.32;;;20.70;93.10;;;;;;5057244;28;20016;-65
2022/07/02 06:57:48;;;;;;;7.15;5.47;;;20.80;93.10;;;;;;5057685;28;20479;-65
2022/07/02 07:00:15;;;;;;;7.95;5.60;;;20.80;92.80;;;;;;5039390;28;20451;-66
2022/07/02 07:02:40;;;;;;;5.57;4.90;;;20.90;92.80;;;;;;5049556;28;20391;-66
2022/07/02 07:05:07;;;;;;;7.05;5.00;;;21.00;92.70;;;;;;5050344;28;20032;-64
2022/07/02 07:07:34;;;;;;;5.78;4.90;;;21.10;92.50;;;;;;5048310;28;20080;-65
2022/07/02 07:10:00;;;;;;;9.70;5.57;;;21.10;92.50;;;;;;5050229;28;20033;-64
2022/07/02 07:12:26;;;;;;;9.20;5.07;;;21.10;92.80;;;;;;5042312;28;20029;-66
2022/07/02 07:14:51;;;;;;;7.20;4.65;;;21.20;92.80;;;;;;5054195;28;20033;-66
2022/07/02 07:17:17;;;;;;;8.48;4.70;;;21.30;92.50;;;;;;5043816;28;20021;-66
2022/07/02 07:19:43;;;;;;;6.57;4.72;;;21.30;92.40;;;;;;5053019;28;20025;-66
2022/07/02 07:22:09;;;;;;;5.65;4.90;;;21.40;92.20;;;;;;5048032;28;20025;-66
2022/07/02 07:24:35;;;;;;;12.80;5.70;;;21.50;91.90;;;;;;5051588;28;20484;-66
2022/07/02 07:27:01;;;;;;;6.05;4.95;;;21.50;91.70;;;;;;5050841;28;20029;-66
2022/07/02 07:29:26;;;;;;;4.80;4.28;;;21.50;91.30;;;;;;5052387;28;20039;-65
2022/07/02 07:31:52;;;;;;;5.90;4.15;;;21.50;91.00;;;;;;5044411;28;20113;-65
2022/07/02 07:34:18;;;;;;;5.57;3.90;;;21.60;90.90;;;;;;5042357;28;20060;-65
2022/07/02 07:36:46;;;;;;;7.50;4.78;;;21.60;90.80;;;;;;5044161;28;20434;-65
2022/07/02 07:39:12;;;;;;;5.47;4.28;;;21.70;90.80;;;;;;5047776;28;20028;-65
2022/07/02 07:41:37;;;;;;;4.30;3.50;;;21.70;90.70;;;;;;5051799;28;20021;-64
2022/07/02 07:44:03;;;;;;;6.28;3.83;;;21.80;90.70;;;;;;5038790;28;20393;-66
2022/07/02 07:46:29;;;;;;;4.70;3.33;;;21.80;90.20;;;;;;5047645;28;20025;-65
2022/07/02 07:48:54;;;;;;;4.80;3.22;;;21.90;89.70;;;;;;5049478;28;20102;-66
2022/07/02 07:51:20;;;;;;;3.40;2.70;;;22.00;88.50;;;;;;5041580;28;20025;-66
2022/07/02 07:53:45;;;;;;;5.65;2.92;;;22.00;87.50;;;;;;5045907;28;20037;-66
2022/07/02 07:56:18;;;;;;;3.20;2.65;;;22.10;87.00;;;;;;5051238;28;20029;-67
2022/07/02 07:58:47;;;;;;;4.68;2.78;;;22.10;86.20;;;;;;5049176;28;20090;-66
2022/07/02 08:01:13;;;;;;;5.93;2.75;;;22.20;86.10;;;;;;5041109;28;20032;-66
2022/07/02 08:03:39;;;;;;;3.58;2.85;;;22.20;86.10;;;;;;5048768;28;20036;-66
2022/07/02 08:06:05;;;;;;;5.47;2.70;;;22.30;86.50;;;;;;5051969;28;20159;-66
2022/07/02 08:08:31;;;;;;;2.97;2.30;;;22.40;85.30;;;;;;5048155;28;20511;-64
2022/07/02 08:10:56;;;;;;;4.75;2.50;;;22.40;84.80;;;;;;5046763;28;20036;-65
2022/07/02 08:13:22;;;;;;;4.57;3.10;;;22.50;83.30;;;;;;5047564;28;20048;-65
2022/07/02 08:15:47;;;;;;;4.85;2.40;;;22.60;83.10;;;;;;5045484;28;20032;-65
2022/07/02 08:18:13;;;;;;;4.43;2.17;;;22.70;82.80;;;;;;5050007;28;20028;-65
2022/07/02 08:20:39;;;;;;;4.57;2.60;;;22.80;82.20;;;;;;5051057;28;20018;-65
2022/07/02 08:23:04;;;;;;;4.20;2.30;;;22.80;81.50;;;;;;5050840;28;20088;-65
2022/07/02 08:25:30;;;;;;;2.78;2.17;;;22.90;81.60;;;;;;5036313;28;20036;-67
2022/07/02 08:27:56;;;;;;;2.95;2.10;;;23.00;80.20;;;;;;5038281;28;20531;-66
2022/07/02 08:30:21;;;;;;;2.97;2.08;;;23.10;79.80;;;;;;5052784;28;20037;-66
2022/07/02 08:32:47;;;;;;;4.28;2.65;;;23.20;78.80;;;;;;5052888;28;20123;-66
2022/07/02 08:35:13;;;;;;;3.65;2.10;;;23.30;78.30;;;;;;5039253;28;20519;-66
2022/07/02 08:37:39;;;;;;;4.28;2.30;;;23.40;77.90;;;;;;5035262;28;20475;-66
2022/07/02 08:40:05;;;;;;;3.70;2.35;;;23.50;78.10;;;;;;5040864;28;20519;-66
2022/07/02 08:42:31;;;;;;;4.72;2.00;;;23.60;77.30;;;;;;5045809;28;20025;-66
2022/07/02 08:45:03;;;;;;;4.75;2.25;;;23.70;76.20;;;;;;5048318;28;20033;-66
2022/07/02 08:47:29;;;;;;;2.63;1.85;;;23.70;75.70;;;;;;5046727;28;20033;-66
2022/07/02 08:49:57;;;;;;;3.50;2.00;;;23.70;75.70;;;;;;5047267;28;20060;-66
2022/07/02 08:52:24;;;;;;;3.88;2.08;;;23.70;75.10;;;;;;5044652;28;20052;-66
2022/07/02 08:54:51;;;;;;;4.10;2.30;;;23.70;74.90;;;;;;5054620;28;20044;-66
2022/07/02 08:57:18;;;;;;;4.80;2.20;;;23.70;74.90;;;;;;5046897;28;20021;-66
2022/07/02 08:59:44;;;;;;;3.03;1.80;;;23.80;75.20;;;;;;5051480;28;20358;-66
2022/07/02 09:02:13;;;;;;;3.17;1.95;;;23.70;73.90;;;;;;5044468;28;20108;-66
2022/07/02 09:04:47;;;;;;;2.42;1.65;;;23.70;72.60;;;;;;5050379;28;20081;-66
2022/07/02 09:07:15;;;;;;;2.75;1.92;;;23.70;72.80;;;;;;5045174;28;20065;-66
2022/07/02 09:09:42;;;;;;;2.67;1.65;;;23.60;71.50;;;;;;5051524;28;20048;-66
2022/07/02 09:12:14;;;;;;;2.47;1.58;;;23.60;71.90;;;;;;5046788;28;20022;-65
2022/07/02 09:14:42;;;;;;;4.70;2.08;;;23.70;71.30;;;;;;5047915;28;20189;-66
2022/07/02 09:17:09;;;;;;;5.32;1.92;;;23.70;70.90;;;;;;5045731;28;20025;-65
2022/07/02 09:19:36;;;;;;;3.17;1.83;;;23.80;70.90;;;;;;5041128;28;20386;-65
2022/07/02 09:22:03;;;;;;;3.28;1.80;;;23.90;70.10;;;;;;5045228;28;20033;-66
2022/07/02 09:24:30;;;;;;;4.78;1.70;;;23.90;70.30;;;;;;5042095;28;20068;-65
2022/07/02 09:27:07;;;;;;;3.33;1.85;;;24.00;68.40;;;;;;5043794;28;20029;-65
2022/07/02 09:29:54;;;;;;;2.80;1.20;;;24.00;68.70;;;;;;5042609;28;20071;-65
2022/07/02 09:32:20;;;;;;;6.30;1.88;;;24.10;67.60;;;;;;5045977;28;20033;-66
2022/07/02 09:34:49;;;;;;;2.55;1.58;;;24.20;67.50;;;;;;5040876;28;20034;-66
2022/07/02 09:37:23;;;;;;;4.45;2.05;;;24.20;67.90;;;;;;5045623;28;20155;-66
2022/07/02 09:39:51;;;;;;;2.03;1.33;;;24.20;67.50;;;;;;5042280;28;20029;-66
2022/07/02 09:42:24;;;;;;;2.47;1.60;;;24.30;67.70;;;;;;5045604;28;20037;-65
2022/07/02 09:44:50;;;;;;;2.33;1.50;;;24.40;67.00;;;;;;5041569;28;20026;-66
2022/07/02 09:47:16;;;;;;;5.05;1.60;;;24.40;66.80;;;;;;5045163;28;20047;-66
2022/07/02 09:49:48;;;;;;;2.97;1.73;;;24.50;65.90;;;;;;5042544;28;20029;-68
2022/07/02 09:52:15;;;;;;;3.00;1.40;;;24.60;65.50;;;;;;5044931;28;20032;-66
2022/07/02 09:54:42;;;;;;;2.83;1.70;;;24.60;65.30;;;;;;5045594;28;20091;-66
2022/07/02 09:57:10;;;;;;;3.00;1.73;;;24.70;64.40;;;;;;5058042;28;20017;-66
2022/07/02 09:59:38;;;;;;;2.88;1.70;;;24.70;65.50;;;;;;5041980;28;20044;-67
2022/07/02 10:02:04;;;;;;;3.25;1.50;;;24.80;65.00;;;;;;5043360;28;20384;-66
2022/07/02 10:04:31;;;;;;;10.88;2.72;;;24.90;65.80;;;;;;5047627;28;20025;-66
2022/07/02 10:06:59;;;;;;;3.30;1.75;;;25.00;65.20;;;;;;5040143;28;20158;-67
2022/07/02 10:09:26;;;;;;;4.45;1.70;;;25.10;64.80;;;;;;5046854;28;20072;-66
2022/07/02 10:11:52;;;;;;;2.53;1.65;;;25.10;63.70;;;;;;5048742;28;20084;-67
2022/07/02 10:14:21;;;;;;;3.88;2.10;;;25.20;64.10;;;;;;5048831;28;20075;-67
2022/07/02 10:16:49;;;;;;;3.60;1.60;;;25.30;64.10;;;;;;5042578;28;20029;-68
2022/07/02 10:19:15;;;;;;;2.78;1.70;;;25.30;64.40;;;;;;5045595;28;20029;-67
2022/07/02 10:21:42;;;;;;;3.03;1.60;;;25.40;62.60;;;;;;5044655;28;20033;-67
2022/07/02 10:24:09;;;;;;;3.45;1.50;;;25.50;60.40;;;;;;5050174;28;20508;-67
2022/07/02 10:26:35;;;;;;;2.17;1.50;;;25.40;59.40;;;;;;5065112;28;20037;-66
2022/07/02 10:29:04;;;;;;;5.00;1.75;;;25.50;60.00;;;;;;5050165;28;20410;-65
2022/07/02 10:31:42;;;;;;;3.83;2.28;;;25.50;60.40;;;;;;5045263;28;20029;-67
2022/07/02 10:34:25;;;;;;;2.00;1.38;;;25.50;61.70;;;;;;5048652;28;20036;-67
2022/07/02 10:36:51;;;;;;;4.40;2.17;;;25.60;59.10;;;;;;5032434;28;20033;-67
2022/07/02 10:39:19;;;;;;;2.80;1.48;;;25.60;61.30;;;;;;5046565;28;20031;-67
2022/07/02 10:41:45;;;;;;;4.13;1.70;;;25.70;59.90;;;;;;5042270;28;20029;-67
2022/07/02 10:44:10;;;;;;;3.55;1.50;;;25.70;59.50;;;;;;5048959;28;20029;-67
2022/07/02 10:46:37;;;;;;;3.25;1.60;;;25.80;59.80;;;;;;5040118;28;20416;-68
2022/07/02 10:49:05;;;;;;;5.25;1.60;;;25.80;59.70;;;;;;5049055;28;20029;-68
2022/07/02 10:51:38;;;;;;;3.10;1.55;;;25.80;59.10;;;;;;5046541;28;20092;-68
2022/07/02 10:54:05;;;;;;;3.22;1.60;;;25.90;59.00;;;;;;5049565;28;20041;-68
2022/07/02 10:56:44;;;;;;;4.28;1.48;;;25.90;58.80;;;;;;5046386;28;20025;-68
2022/07/02 10:59:42;;;;;;;2.47;1.60;;;26.00;58.50;;;;;;5049798;28;20029;-68
2022/07/02 11:02:08;;;;;;;7.45;1.95;;;26.00;58.20;;;;;;5046008;28;20040;-67
2022/07/02 11:04:35;;;;;;;2.60;1.50;;;26.00;58.10;;;;;;5050347;28;20044;-67
2022/07/02 11:07:05;;;;;;;2.15;1.50;;;26.00;57.80;;;;;;5050601;28;20381;-68
2022/07/02 11:09:31;;;;;;;3.53;1.50;;;26.10;55.90;;;;;;5060633;28;20053;-67
2022/07/02 11:12:00;;;;;;;3.28;2.00;;;26.10;56.70;;;;;;5045688;28;20033;-67
2022/07/02 11:14:27;;;;;;;4.15;1.75;;;26.20;57.20;;;;;;5047741;28;20045;-68
2022/07/02 11:16:53;;;;;;;8.35;1.70;;;26.20;56.80;;;;;;5045905;28;20022;-68
2022/07/02 11:19:30;;;;;;;3.38;1.73;;;26.30;56.00;;;;;;5044276;28;20032;-67
2022/07/02 11:21:58;;;;;;;2.05;1.60;;;26.40;55.50;;;;;;5042320;28;20269;-67
2022/07/02 11:24:26;;;;;;;3.38;1.70;;;26.30;55.40;;;;;;5043368;28;20063;-67
2022/07/02 11:26:52;;;;;;;3.70;1.70;;;26.40;55.30;;;;;;5043370;28;20035;-67
2022/07/02 11:29:18;;;;;;;2.13;1.40;;;26.40;54.50;;;;;;5046728;28;20037;-68
2022/07/02 11:31:48;;;;;;;4.60;1.92;;;26.40;54.00;;;;;;5044589;28;20465;-67
2022/07/02 11:34:20;;;;;;;2.83;1.70;;;26.50;53.70;;;;;;5045186;28;20044;-67
2022/07/02 11:36:46;;;;;;;1.45;1.30;;;26.50;52.60;;;;;;5048710;28;20087;-68
2022/07/02 11:39:13;;;;;;;4.03;1.42;;;26.40;52.90;;;;;;5049542;28;20029;-67
2022/07/02 11:41:40;;;;;;;4.25;1.75;;;26.30;54.40;;;;;;5049021;28;20072;-67
2022/07/02 11:44:32;;;;;;;1.75;1.27;;;26.30;53.10;;;;;;5048723;28;20432;-68
2022/07/02 11:46:59;;;;;;;2.30;1.38;;;26.40;53.70;;;;;;5040797;28;20047;-68
2022/07/02 11:49:37;;;;;;;2.22;1.40;;;26.40;52.70;;;;;;5049360;28;20737;-68
2022/07/02 11:52:05;;;;;;;1.98;1.10;;;26.30;52.20;;;;;;5042011;28;20488;-67
2022/07/02 11:54:30;;;;;;;1.50;1.00;;;26.40;52.90;;;;;;5049142;28;20431;-68
2022/07/02 11:56:56;;;;;;;2.15;1.30;;;26.40;52.60;;;;;;5040809;28;20025;-68
2022/07/02 11:59:24;;;;;;;2.95;1.50;;;26.40;52.00;;;;;;5044313;28;20040;-68
2022/07/02 12:01:51;;;;;;;3.78;1.58;;;26.40;51.80;;;;;;5043165;28;20064;-67
2022/07/02 12:04:19;;;;;;;2.13;1.48;;;26.50;51.40;;;;;;5051899;28;20108;-68
2022/07/02 12:06:47;;;;;;;2.72;1.70;;;26.50;51.30;;;;;;5052300;28;20028;-68
2022/07/02 12:09:22;;;;;;;2.85;1.50;;;26.40;49.90;;;;;;5046746;28;20052;-67
2022/07/02 12:11:48;;;;;;;2.28;1.50;;;26.40;51.30;;;;;;5047233;28;20028;-68
2022/07/02 12:14:15;;;;;;;1.70;1.20;;;26.40;51.00;;;;;;5056007;28;20483;-67
2022/07/02 12:16:44;;;;;;;3.67;1.40;;;26.40;51.30;;;;;;5053367;28;20033;-68
2022/07/02 12:19:13;;;;;;;2.80;1.73;;;26.40;50.90;;;;;;5050121;28;20108;-67
2022/07/02 12:21:48;;;;;;;3.17;1.52;;;26.50;51.50;;;;;;5052107;28;20025;-70
2022/07/02 12:24:31;;;;;;;2.25;1.33;;;26.50;51.40;;;;;;5052293;28;20021;-68
2022/07/02 12:27:06;;;;;;;3.08;1.40;;;26.60;51.40;;;;;;5049086;28;20029;-68
2022/07/02 12:32:25;;;;;;;3.13;1.60;;;26.70;50.80;;;;;;5045845;28;20102;-68
2022/07/02 12:35:00;;;;;;;2.92;1.50;;;26.80;51.10;;;;;;5050456;28;20370;-68
2022/07/02 12:37:38;;;;;;;1.98;1.42;;;26.90;51.40;;;;;;5053181;28;20025;-66
2022/07/02 12:40:09;;;;;;;2.13;1.13;;;26.90;50.00;;;;;;5037282;28;20620;-66
2022/07/02 12:42:54;;;;;;;2.33;1.15;;;27.00;49.80;;;;;;5049494;28;20040;-68
2022/07/02 12:45:33;;;;;;;2.47;1.48;;;26.90;49.50;;;;;;5048290;28;20056;-67
2022/07/02 12:48:08;;;;;;;1.48;1.20;;;26.90;49.70;;;;;;5051820;28;20024;-66
2022/07/02 12:50:44;;;;;;;1.33;1.23;;;26.90;50.30;;;;;;5041620;28;20029;-66
2022/07/02 12:53:15;;;;;;;2.42;1.40;;;27.00;49.80;;;;;;5040482;28;20059;-66